sensor_id;sensor_type;location;lat;lon;timestamp;temperature;humidity
84389;DHT22;74589;48.846;2.382;2024-03-22T00:01:50;18.10;1.00
84389;DHT22;74589;48.846;2.382;2024-03-22T00:04:16;18.00;1.00
84389;DHT22;74589;48.846;2.382;2024-03-22T00:06:43;18.00;1.00
84389;DHT22;74589;48.846;2.382;2024-03-22T00:09:09;18.00;1.00
84389;DHT22;74589;48.846;2.382;2024-03-22T00:11:35;17.90;1.00
84389;DHT22;74589;48.846;2.382;2024-03-22T00:14:02;17.80;1.00
84389;DHT22;74589;48.846;2.382;2024-03-22T00:16:28;17.80;1.00
84389;DHT22;74589;48.846;2.382;2024-03-22T00:18:53;17.80;1.00
84389;DHT22;74589;48.846;2.382;2024-03-22T00:21:21;17.80;1.00
84389;DHT22;74589;48.846;2.382;2024-03-22T00:23:46;17.80;1.00
84389;DHT22;74589;48.846;2.382;2024-03-22T00:26:12;17.80;1.00
84389;DHT22;74589;48.846;2.382;2024-03-22T00:28:38;17.70;1.00
84389;DHT22;74589;48.846;2.382;2024-03-22T00:31:03;17.70;1.00
84389;DHT22;74589;48.846;2.382;2024-03-22T00:33:29;17.60;1.00
84389;DHT22;74589;48.846;2.382;2024-03-22T00:35:55;17.60;1.00
84389;DHT22;74589;48.846;2.382;2024-03-22T00:38:20;17.60;1.00
84389;DHT22;74589;48.846;2.382;2024-03-22T00:40:46;17.50;1.10
84389;DHT22;74589;48.846;2.382;2024-03-22T00:43:11;17.50;1.10
84389;DHT22;74589;48.846;2.382;2024-03-22T00:45:37;17.50;1.80
84389;DHT22;74589;48.846;2.382;2024-03-22T00:48:03;17.40;1.40
84389;DHT22;74589;48.846;2.382;2024-03-22T00:50:28;17.40;1.50
84389;DHT22;74589;48.846;2.382;2024-03-22T00:52:54;17.40;1.40
84389;DHT22;74589;48.846;2.382;2024-03-22T00:55:26;17.40;1.40
84389;DHT22;74589;48.846;2.382;2024-03-22T00:57:51;17.40;1.40
84389;DHT22;74589;48.846;2.382;2024-03-22T01:00:17;17.40;1.60
84389;DHT22;74589;48.846;2.382;2024-03-22T01:02:43;17.40;1.70
84389;DHT22;74589;48.846;2.382;2024-03-22T01:05:09;17.40;1.70
84389;DHT22;74589;48.846;2.382;2024-03-22T01:07:36;17.40;1.80
84389;DHT22;74589;48.846;2.382;2024-03-22T01:10:02;17.30;1.80
84389;DHT22;74589;48.846;2.382;2024-03-22T01:12:28;17.40;1.90
84389;DHT22;74589;48.846;2.382;2024-03-22T01:14:54;17.30;2.10
84389;DHT22;74589;48.846;2.382;2024-03-22T01:17:20;17.30;2.20
84389;DHT22;74589;48.846;2.382;2024-03-22T01:19:45;17.20;2.60
84389;DHT22;74589;48.846;2.382;2024-03-22T01:22:11;17.10;2.80
84389;DHT22;74589;48.846;2.382;2024-03-22T01:24:36;17.10;2.80
84389;DHT22;74589;48.846;2.382;2024-03-22T01:27:03;17.20;2.80
84389;DHT22;74589;48.846;2.382;2024-03-22T01:29:29;17.20;2.90
84389;DHT22;74589;48.846;2.382;2024-03-22T01:31:59;17.20;2.80
84389;DHT22;74589;48.846;2.382;2024-03-22T01:34:25;17.20;2.90
84389;DHT22;74589;48.846;2.382;2024-03-22T01:36:51;17.10;3.20
84389;DHT22;74589;48.846;2.382;2024-03-22T01:39:18;17.10;3.20
84389;DHT22;74589;48.846;2.382;2024-03-22T01:41:47;17.10;3.20
84389;DHT22;74589;48.846;2.382;2024-03-22T01:44:12;17.00;3.20
84389;DHT22;74589;48.846;2.382;2024-03-22T01:46:42;17.00;3.30
84389;DHT22;74589;48.846;2.382;2024-03-22T01:49:10;17.00;3.30
84389;DHT22;74589;48.846;2.382;2024-03-22T01:51:42;17.00;3.20
84389;DHT22;74589;48.846;2.382;2024-03-22T01:54:10;17.00;3.10
84389;DHT22;74589;48.846;2.382;2024-03-22T01:56:40;17.00;2.90
84389;DHT22;74589;48.846;2.382;2024-03-22T01:59:06;17.00;3.10
84389;DHT22;74589;48.846;2.382;2024-03-22T02:01:32;17.00;3.00
84389;DHT22;74589;48.846;2.382;2024-03-22T02:03:59;16.90;3.20
84389;DHT22;74589;48.846;2.382;2024-03-22T02:06:24;16.90;3.30
84389;DHT22;74589;48.846;2.382;2024-03-22T02:08:50;16.90;3.30
84389;DHT22;74589;48.846;2.382;2024-03-22T02:11:16;16.90;3.30
84389;DHT22;74589;48.846;2.382;2024-03-22T02:13:41;16.90;3.50
84389;DHT22;74589;48.846;2.382;2024-03-22T02:16:08;16.80;3.40
84389;DHT22;74589;48.846;2.382;2024-03-22T02:18:34;16.80;3.50
84389;DHT22;74589;48.846;2.382;2024-03-22T02:21:00;16.80;3.50
84389;DHT22;74589;48.846;2.382;2024-03-22T02:23:39;16.80;3.40
84389;DHT22;74589;48.846;2.382;2024-03-22T02:26:05;16.80;3.40
84389;DHT22;74589;48.846;2.382;2024-03-22T02:28:32;16.80;3.60
84389;DHT22;74589;48.846;2.382;2024-03-22T02:30:59;16.60;3.80
84389;DHT22;74589;48.846;2.382;2024-03-22T02:33:24;16.70;3.90
84389;DHT22;74589;48.846;2.382;2024-03-22T02:35:51;16.60;3.90
84389;DHT22;74589;48.846;2.382;2024-03-22T02:38:17;16.60;4.10
84389;DHT22;74589;48.846;2.382;2024-03-22T02:40:46;16.60;4.20
84389;DHT22;74589;48.846;2.382;2024-03-22T02:43:12;16.50;4.30
84389;DHT22;74589;48.846;2.382;2024-03-22T02:45:38;16.50;4.40
84389;DHT22;74589;48.846;2.382;2024-03-22T02:48:04;16.50;4.30
84389;DHT22;74589;48.846;2.382;2024-03-22T02:50:34;16.50;4.20
84389;DHT22;74589;48.846;2.382;2024-03-22T02:53:00;16.50;4.20
84389;DHT22;74589;48.846;2.382;2024-03-22T02:55:25;16.50;4.10
84389;DHT22;74589;48.846;2.382;2024-03-22T02:57:51;16.60;3.80
84389;DHT22;74589;48.846;2.382;2024-03-22T03:00:17;16.50;3.80
84389;DHT22;74589;48.846;2.382;2024-03-22T03:02:43;16.50;4.00
84389;DHT22;74589;48.846;2.382;2024-03-22T03:05:09;16.50;4.10
84389;DHT22;74589;48.846;2.382;2024-03-22T03:07:35;16.50;4.10
84389;DHT22;74589;48.846;2.382;2024-03-22T03:10:01;16.40;4.10
84389;DHT22;74589;48.846;2.382;2024-03-22T03:12:26;16.40;4.20
84389;DHT22;74589;48.846;2.382;2024-03-22T03:14:52;16.40;4.10
84389;DHT22;74589;48.846;2.382;2024-03-22T03:17:18;16.40;4.20
84389;DHT22;74589;48.846;2.382;2024-03-22T03:19:44;16.40;4.10
84389;DHT22;74589;48.846;2.382;2024-03-22T03:22:10;16.40;3.90
84389;DHT22;74589;48.846;2.382;2024-03-22T03:24:35;16.50;3.60
84389;DHT22;74589;48.846;2.382;2024-03-22T03:27:01;16.40;3.70
84389;DHT22;74589;48.846;2.382;2024-03-22T03:29:27;16.40;3.70
84389;DHT22;74589;48.846;2.382;2024-03-22T03:31:53;16.40;3.50
84389;DHT22;74589;48.846;2.382;2024-03-22T03:34:19;16.30;3.70
84389;DHT22;74589;48.846;2.382;2024-03-22T03:36:46;16.40;3.70
84389;DHT22;74589;48.846;2.382;2024-03-22T03:39:11;16.40;3.40
84389;DHT22;74589;48.846;2.382;2024-03-22T03:41:37;16.30;3.50
84389;DHT22;74589;48.846;2.382;2024-03-22T03:44:03;16.30;3.50
84389;DHT22;74589;48.846;2.382;2024-03-22T03:46:28;16.30;3.50
84389;DHT22;74589;48.846;2.382;2024-03-22T03:48:54;16.20;3.40
84389;DHT22;74589;48.846;2.382;2024-03-22T03:51:19;16.20;3.40
84389;DHT22;74589;48.846;2.382;2024-03-22T03:53:45;16.20;3.70
84389;DHT22;74589;48.846;2.382;2024-03-22T03:56:11;16.20;3.50
84389;DHT22;74589;48.846;2.382;2024-03-22T03:58:36;16.20;3.30
84389;DHT22;74589;48.846;2.382;2024-03-22T04:01:06;16.20;3.10
84389;DHT22;74589;48.846;2.382;2024-03-22T04:03:32;16.20;3.10
84389;DHT22;74589;48.846;2.382;2024-03-22T04:05:58;16.20;2.80
84389;DHT22;74589;48.846;2.382;2024-03-22T04:08:25;16.20;2.80
84389;DHT22;74589;48.846;2.382;2024-03-22T04:10:55;16.20;2.80
84389;DHT22;74589;48.846;2.382;2024-03-22T04:13:24;16.20;2.70
84389;DHT22;74589;48.846;2.382;2024-03-22T04:15:50;16.20;2.70
84389;DHT22;74589;48.846;2.382;2024-03-22T04:18:16;16.20;2.80
84389;DHT22;74589;48.846;2.382;2024-03-22T04:20:41;16.10;3.00
84389;DHT22;74589;48.846;2.382;2024-03-22T04:23:09;16.10;2.90
84389;DHT22;74589;48.846;2.382;2024-03-22T04:25:35;16.00;3.00
84389;DHT22;74589;48.846;2.382;2024-03-22T04:28:00;16.00;3.00
84389;DHT22;74589;48.846;2.382;2024-03-22T04:30:26;16.00;3.60
84389;DHT22;74589;48.846;2.382;2024-03-22T04:32:51;16.00;3.10
84389;DHT22;74589;48.846;2.382;2024-03-22T04:35:17;16.00;3.00
84389;DHT22;74589;48.846;2.382;2024-03-22T04:37:42;16.00;2.90
84389;DHT22;74589;48.846;2.382;2024-03-22T04:40:09;16.00;2.90
84389;DHT22;74589;48.846;2.382;2024-03-22T04:42:37;16.10;2.80
84389;DHT22;74589;48.846;2.382;2024-03-22T04:45:03;16.10;2.80
84389;DHT22;74589;48.846;2.382;2024-03-22T04:47:29;16.10;2.70
84389;DHT22;74589;48.846;2.382;2024-03-22T04:49:54;16.00;2.70
84389;DHT22;74589;48.846;2.382;2024-03-22T04:52:20;16.00;2.80
84389;DHT22;74589;48.846;2.382;2024-03-22T04:54:46;16.00;2.80
84389;DHT22;74589;48.846;2.382;2024-03-22T04:57:13;16.00;2.90
84389;DHT22;74589;48.846;2.382;2024-03-22T04:59:38;16.00;2.90
84389;DHT22;74589;48.846;2.382;2024-03-22T05:02:04;15.90;3.10
84389;DHT22;74589;48.846;2.382;2024-03-22T05:04:29;15.90;3.20
84389;DHT22;74589;48.846;2.382;2024-03-22T05:06:55;15.90;3.40
84389;DHT22;74589;48.846;2.382;2024-03-22T05:09:21;15.90;3.40
84389;DHT22;74589;48.846;2.382;2024-03-22T05:11:46;15.90;3.40
84389;DHT22;74589;48.846;2.382;2024-03-22T05:14:15;15.90;3.40
84389;DHT22;74589;48.846;2.382;2024-03-22T05:16:41;15.90;3.40
84389;DHT22;74589;48.846;2.382;2024-03-22T05:19:07;15.90;3.40
84389;DHT22;74589;48.846;2.382;2024-03-22T05:21:33;15.90;3.50
84389;DHT22;74589;48.846;2.382;2024-03-22T05:23:58;15.90;3.40
84389;DHT22;74589;48.846;2.382;2024-03-22T05:26:24;15.90;3.40
84389;DHT22;74589;48.846;2.382;2024-03-22T05:28:49;15.90;3.40
84389;DHT22;74589;48.846;2.382;2024-03-22T05:31:15;15.90;3.40
84389;DHT22;74589;48.846;2.382;2024-03-22T05:33:40;16.00;3.40
84389;DHT22;74589;48.846;2.382;2024-03-22T05:36:06;16.00;3.10
84389;DHT22;74589;48.846;2.382;2024-03-22T05:38:32;16.00;3.40
84389;DHT22;74589;48.846;2.382;2024-03-22T05:40:58;15.90;3.40
84389;DHT22;74589;48.846;2.382;2024-03-22T05:43:23;15.90;3.50
84389;DHT22;74589;48.846;2.382;2024-03-22T05:45:49;15.90;3.60
84389;DHT22;74589;48.846;2.382;2024-03-22T05:48:15;15.90;3.70
84389;DHT22;74589;48.846;2.382;2024-03-22T05:50:41;15.80;3.90
84389;DHT22;74589;48.846;2.382;2024-03-22T05:53:06;15.80;4.00
84389;DHT22;74589;48.846;2.382;2024-03-22T05:55:32;15.80;4.00
84389;DHT22;74589;48.846;2.382;2024-03-22T05:57:58;15.90;4.00
84389;DHT22;74589;48.846;2.382;2024-03-22T06:00:23;15.80;4.00
84389;DHT22;74589;48.846;2.382;2024-03-22T06:02:50;15.90;4.10
84389;DHT22;74589;48.846;2.382;2024-03-22T06:05:15;15.90;4.20
84389;DHT22;74589;48.846;2.382;2024-03-22T06:07:43;15.90;4.20
84389;DHT22;74589;48.846;2.382;2024-03-22T06:10:09;15.90;4.20
84389;DHT22;74589;48.846;2.382;2024-03-22T06:12:38;15.90;4.10
84389;DHT22;74589;48.846;2.382;2024-03-22T06:15:04;15.90;4.10
84389;DHT22;74589;48.846;2.382;2024-03-22T06:17:32;15.90;4.20
84389;DHT22;74589;48.846;2.382;2024-03-22T06:19:58;16.00;4.30
84389;DHT22;74589;48.846;2.382;2024-03-22T06:22:25;16.00;4.20
84389;DHT22;74589;48.846;2.382;2024-03-22T06:24:50;16.00;4.20
84389;DHT22;74589;48.846;2.382;2024-03-22T06:27:16;16.00;4.00
84389;DHT22;74589;48.846;2.382;2024-03-22T06:29:41;16.00;4.10
84389;DHT22;74589;48.846;2.382;2024-03-22T06:32:07;16.10;4.00
84389;DHT22;74589;48.846;2.382;2024-03-22T06:34:33;16.10;4.20
84389;DHT22;74589;48.846;2.382;2024-03-22T06:36:58;16.10;4.30
84389;DHT22;74589;48.846;2.382;2024-03-22T06:39:24;16.20;4.30
84389;DHT22;74589;48.846;2.382;2024-03-22T06:41:50;16.30;4.20
84389;DHT22;74589;48.846;2.382;2024-03-22T06:44:15;16.20;4.30
84389;DHT22;74589;48.846;2.382;2024-03-22T06:46:41;16.40;4.00
84389;DHT22;74589;48.846;2.382;2024-03-22T06:49:06;16.60;3.60
84389;DHT22;74589;48.846;2.382;2024-03-22T06:51:32;16.70;3.70
84389;DHT22;74589;48.846;2.382;2024-03-22T06:53:58;16.80;3.10
84389;DHT22;74589;48.846;2.382;2024-03-22T06:56:23;16.90;2.90
84389;DHT22;74589;48.846;2.382;2024-03-22T06:58:49;17.00;2.60
84389;DHT22;74589;48.846;2.382;2024-03-22T07:01:14;17.20;2.20
84389;DHT22;74589;48.846;2.382;2024-03-22T07:03:41;17.30;1.90
84389;DHT22;74589;48.846;2.382;2024-03-22T07:06:11;17.30;1.80
84389;DHT22;74589;48.846;2.382;2024-03-22T07:08:36;17.10;2.00
84389;DHT22;74589;48.846;2.382;2024-03-22T07:11:05;17.20;1.90
84389;DHT22;74589;48.846;2.382;2024-03-22T07:13:31;17.20;1.60
84389;DHT22;74589;48.846;2.382;2024-03-22T07:15:57;17.20;1.70
84389;DHT22;74589;48.846;2.382;2024-03-22T07:18:23;17.40;1.80
84389;DHT22;74589;48.846;2.382;2024-03-22T07:20:48;17.50;1.30
84389;DHT22;74589;48.846;2.382;2024-03-22T07:23:14;17.50;1.30
84389;DHT22;74589;48.846;2.382;2024-03-22T07:25:40;17.60;1.00
84389;DHT22;74589;48.846;2.382;2024-03-22T07:28:08;17.80;1.00
84389;DHT22;74589;48.846;2.382;2024-03-22T07:30:33;17.90;1.00
84389;DHT22;74589;48.846;2.382;2024-03-22T07:33:00;18.00;1.00
84389;DHT22;74589;48.846;2.382;2024-03-22T07:35:26;18.10;1.00
84389;DHT22;74589;48.846;2.382;2024-03-22T07:37:52;18.10;1.00
84389;DHT22;74589;48.846;2.382;2024-03-22T07:40:18;18.00;1.00
84389;DHT22;74589;48.846;2.382;2024-03-22T07:42:43;18.00;1.00
84389;DHT22;74589;48.846;2.382;2024-03-22T07:45:09;18.00;1.00
84389;DHT22;74589;48.846;2.382;2024-03-22T07:47:35;18.00;1.00
84389;DHT22;74589;48.846;2.382;2024-03-22T07:50:01;18.00;1.00
84389;DHT22;74589;48.846;2.382;2024-03-22T07:52:27;18.20;1.00
84389;DHT22;74589;48.846;2.382;2024-03-22T07:54:52;18.30;1.00
84389;DHT22;74589;48.846;2.382;2024-03-22T07:57:18;18.20;1.00
84389;DHT22;74589;48.846;2.382;2024-03-22T07:59:44;18.20;1.00
84389;DHT22;74589;48.846;2.382;2024-03-22T08:02:10;18.40;1.00
84389;DHT22;74589;48.846;2.382;2024-03-22T08:04:35;18.50;1.00
84389;DHT22;74589;48.846;2.382;2024-03-22T08:07:01;18.60;1.00
84389;DHT22;74589;48.846;2.382;2024-03-22T08:09:27;18.60;1.00
84389;DHT22;74589;48.846;2.382;2024-03-22T08:11:52;18.70;1.00
84389;DHT22;74589;48.846;2.382;2024-03-22T08:14:18;18.60;1.00
84389;DHT22;74589;48.846;2.382;2024-03-22T08:16:43;18.80;1.00
84389;DHT22;74589;48.846;2.382;2024-03-22T08:19:09;18.80;1.00
84389;DHT22;74589;48.846;2.382;2024-03-22T08:21:34;18.90;1.00
84389;DHT22;74589;48.846;2.382;2024-03-22T08:24:02;18.90;1.00
84389;DHT22;74589;48.846;2.382;2024-03-22T08:26:27;19.00;1.00
84389;DHT22;74589;48.846;2.382;2024-03-22T08:28:53;19.20;1.00
84389;DHT22;74589;48.846;2.382;2024-03-22T08:31:19;19.40;1.00
84389;DHT22;74589;48.846;2.382;2024-03-22T08:33:51;19.40;1.00
84389;DHT22;74589;48.846;2.382;2024-03-22T08:36:17;19.40;1.00
84389;DHT22;74589;48.846;2.382;2024-03-22T08:38:42;19.30;1.00
84389;DHT22;74589;48.846;2.382;2024-03-22T08:41:08;19.30;1.00
84389;DHT22;74589;48.846;2.382;2024-03-22T08:43:33;19.30;1.00
84389;DHT22;74589;48.846;2.382;2024-03-22T08:45:59;19.50;1.00
84389;DHT22;74589;48.846;2.382;2024-03-22T08:48:24;19.40;1.00
84389;DHT22;74589;48.846;2.382;2024-03-22T08:50:50;19.90;1.00
84389;DHT22;74589;48.846;2.382;2024-03-22T08:53:16;20.10;1.00
84389;DHT22;74589;48.846;2.382;2024-03-22T08:55:46;20.20;1.00
84389;DHT22;74589;48.846;2.382;2024-03-22T08:58:14;20.40;1.00
84389;DHT22;74589;48.846;2.382;2024-03-22T09:00:41;20.70;1.00
84389;DHT22;74589;48.846;2.382;2024-03-22T09:03:07;20.70;1.00
84389;DHT22;74589;48.846;2.382;2024-03-22T09:05:33;20.70;1.00
84389;DHT22;74589;48.846;2.382;2024-03-22T09:07:59;20.70;1.00
84389;DHT22;74589;48.846;2.382;2024-03-22T09:10:25;20.80;1.00
84389;DHT22;74589;48.846;2.382;2024-03-22T09:12:51;20.60;1.00
84389;DHT22;74589;48.846;2.382;2024-03-22T09:15:17;20.60;1.00
84389;DHT22;74589;48.846;2.382;2024-03-22T09:17:42;20.70;1.00
84389;DHT22;74589;48.846;2.382;2024-03-22T09:20:09;20.70;1.00
84389;DHT22;74589;48.846;2.382;2024-03-22T09:22:34;20.80;1.00
84389;DHT22;74589;48.846;2.382;2024-03-22T09:25:00;20.90;1.00
84389;DHT22;74589;48.846;2.382;2024-03-22T09:27:26;20.90;1.00
84389;DHT22;74589;48.846;2.382;2024-03-22T09:29:51;20.90;1.00
84389;DHT22;74589;48.846;2.382;2024-03-22T09:32:18;20.80;1.00
84389;DHT22;74589;48.846;2.382;2024-03-22T09:34:44;20.70;1.00
84389;DHT22;74589;48.846;2.382;2024-03-22T09:37:09;20.70;1.00
84389;DHT22;74589;48.846;2.382;2024-03-22T09:39:35;20.70;1.00
84389;DHT22;74589;48.846;2.382;2024-03-22T09:42:05;20.50;1.00
84389;DHT22;74589;48.846;2.382;2024-03-22T09:44:32;20.60;1.00
84389;DHT22;74589;48.846;2.382;2024-03-22T09:46:59;20.80;1.00
84389;DHT22;74589;48.846;2.382;2024-03-22T09:49:25;20.90;1.00
84389;DHT22;74589;48.846;2.382;2024-03-22T09:51:51;21.00;1.00
84389;DHT22;74589;48.846;2.382;2024-03-22T09:54:17;21.00;1.00
84389;DHT22;74589;48.846;2.382;2024-03-22T09:56:44;21.10;1.00
84389;DHT22;74589;48.846;2.382;2024-03-22T09:59:11;21.10;1.00
84389;DHT22;74589;48.846;2.382;2024-03-22T10:01:36;21.00;1.00
84389;DHT22;74589;48.846;2.382;2024-03-22T10:04:05;21.00;1.00
84389;DHT22;74589;48.846;2.382;2024-03-22T10:06:30;21.10;1.00
84389;DHT22;74589;48.846;2.382;2024-03-22T10:09:00;21.10;1.00
84389;DHT22;74589;48.846;2.382;2024-03-22T10:11:29;21.20;1.00
84389;DHT22;74589;48.846;2.382;2024-03-22T10:13:54;21.20;1.00
84389;DHT22;74589;48.846;2.382;2024-03-22T10:16:25;21.10;1.00
84389;DHT22;74589;48.846;2.382;2024-03-22T10:18:51;21.10;1.00
84389;DHT22;74589;48.846;2.382;2024-03-22T10:21:18;21.10;1.00
84389;DHT22;74589;48.846;2.382;2024-03-22T10:23:44;21.20;1.00
84389;DHT22;74589;48.846;2.382;2024-03-22T10:26:10;21.10;1.00
84389;DHT22;74589;48.846;2.382;2024-03-22T10:28:35;21.10;1.00
84389;DHT22;74589;48.846;2.382;2024-03-22T10:31:01;21.10;1.00
84389;DHT22;74589;48.846;2.382;2024-03-22T10:33:28;21.20;1.00
84389;DHT22;74589;48.846;2.382;2024-03-22T10:35:54;21.30;1.00
84389;DHT22;74589;48.846;2.382;2024-03-22T10:38:21;21.20;1.00
84389;DHT22;74589;48.846;2.382;2024-03-22T10:40:47;21.30;1.00
84389;DHT22;74589;48.846;2.382;2024-03-22T10:43:14;21.40;1.00
84389;DHT22;74589;48.846;2.382;2024-03-22T10:45:40;21.40;1.00
84389;DHT22;74589;48.846;2.382;2024-03-22T10:48:10;21.50;1.00
84389;DHT22;74589;48.846;2.382;2024-03-22T10:50:39;21.60;1.00
84389;DHT22;74589;48.846;2.382;2024-03-22T10:53:09;21.70;1.00
84389;DHT22;74589;48.846;2.382;2024-03-22T10:55:42;21.70;1.00
84389;DHT22;74589;48.846;2.382;2024-03-22T10:58:21;21.90;1.00
84389;DHT22;74589;48.846;2.382;2024-03-22T11:00:51;21.90;1.00
84389;DHT22;74589;48.846;2.382;2024-03-22T11:03:20;21.90;1.00
84389;DHT22;74589;48.846;2.382;2024-03-22T11:05:46;21.80;1.00
84389;DHT22;74589;48.846;2.382;2024-03-22T11:08:12;21.70;1.00
84389;DHT22;74589;48.846;2.382;2024-03-22T11:10:39;21.70;1.00
84389;DHT22;74589;48.846;2.382;2024-03-22T11:13:06;21.70;1.00
84389;DHT22;74589;48.846;2.382;2024-03-22T11:15:33;21.70;1.00
84389;DHT22;74589;48.846;2.382;2024-03-22T11:17:59;21.70;1.00
84389;DHT22;74589;48.846;2.382;2024-03-22T11:20:26;21.80;1.00
84389;DHT22;74589;48.846;2.382;2024-03-22T11:22:52;21.70;1.00
84389;DHT22;74589;48.846;2.382;2024-03-22T11:25:18;21.90;1.00
84389;DHT22;74589;48.846;2.382;2024-03-22T11:27:44;21.90;1.00
84389;DHT22;74589;48.846;2.382;2024-03-22T11:30:10;22.00;1.00
84389;DHT22;74589;48.846;2.382;2024-03-22T11:32:36;22.10;1.00
84389;DHT22;74589;48.846;2.382;2024-03-22T11:35:09;22.20;1.00
84389;DHT22;74589;48.846;2.382;2024-03-22T11:37:35;22.30;1.00
84389;DHT22;74589;48.846;2.382;2024-03-22T11:40:01;22.10;1.00
84389;DHT22;74589;48.846;2.382;2024-03-22T11:42:32;22.00;1.00
84389;DHT22;74589;48.846;2.382;2024-03-22T11:44:59;22.00;1.00
84389;DHT22;74589;48.846;2.382;2024-03-22T11:47:25;22.00;1.00
84389;DHT22;74589;48.846;2.382;2024-03-22T11:49:51;22.10;1.00
84389;DHT22;74589;48.846;2.382;2024-03-22T11:52:16;22.10;1.00
84389;DHT22;74589;48.846;2.382;2024-03-22T11:54:42;21.80;1.00
84389;DHT22;74589;48.846;2.382;2024-03-22T11:57:09;21.40;1.00
84389;DHT22;74589;48.846;2.382;2024-03-22T11:59:35;21.40;1.00
84389;DHT22;74589;48.846;2.382;2024-03-22T12:02:00;21.60;1.00
84389;DHT22;74589;48.846;2.382;2024-03-22T12:04:26;21.70;1.00
84389;DHT22;74589;48.846;2.382;2024-03-22T12:06:51;21.70;1.00
84389;DHT22;74589;48.846;2.382;2024-03-22T12:09:18;21.70;1.00
84389;DHT22;74589;48.846;2.382;2024-03-22T12:11:44;21.70;1.00
84389;DHT22;74589;48.846;2.382;2024-03-22T12:14:09;21.70;1.00
84389;DHT22;74589;48.846;2.382;2024-03-22T12:16:35;21.80;1.00
84389;DHT22;74589;48.846;2.382;2024-03-22T12:19:01;21.80;1.00
84389;DHT22;74589;48.846;2.382;2024-03-22T12:21:28;21.80;1.00
84389;DHT22;74589;48.846;2.382;2024-03-22T12:23:54;21.80;1.00
84389;DHT22;74589;48.846;2.382;2024-03-22T12:26:19;21.90;1.00
84389;DHT22;74589;48.846;2.382;2024-03-22T12:28:45;22.00;1.00
84389;DHT22;74589;48.846;2.382;2024-03-22T12:31:11;21.90;1.00
84389;DHT22;74589;48.846;2.382;2024-03-22T12:33:36;22.00;1.00
84389;DHT22;74589;48.846;2.382;2024-03-22T12:36:03;22.00;1.00
84389;DHT22;74589;48.846;2.382;2024-03-22T12:38:29;22.00;1.00
84389;DHT22;74589;48.846;2.382;2024-03-22T12:40:55;22.10;1.00
84389;DHT22;74589;48.846;2.382;2024-03-22T12:43:20;22.20;1.00
84389;DHT22;74589;48.846;2.382;2024-03-22T12:45:46;22.30;1.00
84389;DHT22;74589;48.846;2.382;2024-03-22T12:48:12;22.20;1.00
84389;DHT22;74589;48.846;2.382;2024-03-22T12:50:38;22.10;1.00
84389;DHT22;74589;48.846;2.382;2024-03-22T12:53:04;22.20;1.00
84389;DHT22;74589;48.846;2.382;2024-03-22T12:55:30;22.10;1.00
84389;DHT22;74589;48.846;2.382;2024-03-22T12:58:00;22.20;1.00
84389;DHT22;74589;48.846;2.382;2024-03-22T13:00:25;22.10;1.00
84389;DHT22;74589;48.846;2.382;2024-03-22T13:02:51;22.00;1.00
84389;DHT22;74589;48.846;2.382;2024-03-22T13:05:17;22.10;1.00
84389;DHT22;74589;48.846;2.382;2024-03-22T13:07:43;22.20;1.00
84389;DHT22;74589;48.846;2.382;2024-03-22T13:10:09;22.20;1.00
84389;DHT22;74589;48.846;2.382;2024-03-22T13:12:34;22.10;1.00
84389;DHT22;74589;48.846;2.382;2024-03-22T13:15:01;22.20;1.00
84389;DHT22;74589;48.846;2.382;2024-03-22T13:17:27;22.30;1.00
84389;DHT22;74589;48.846;2.382;2024-03-22T13:19:52;22.30;1.00
84389;DHT22;74589;48.846;2.382;2024-03-22T13:22:18;22.30;1.00
84389;DHT22;74589;48.846;2.382;2024-03-22T13:24:47;22.40;1.00
84389;DHT22;74589;48.846;2.382;2024-03-22T13:27:13;22.50;1.00
84389;DHT22;74589;48.846;2.382;2024-03-22T13:29:42;22.50;1.00
84389;DHT22;74589;48.846;2.382;2024-03-22T13:32:08;22.50;1.00
84389;DHT22;74589;48.846;2.382;2024-03-22T13:34:36;22.50;1.00
84389;DHT22;74589;48.846;2.382;2024-03-22T13:37:02;22.40;1.00
84389;DHT22;74589;48.846;2.382;2024-03-22T13:39:29;22.50;1.00
84389;DHT22;74589;48.846;2.382;2024-03-22T13:41:56;22.40;1.00
84389;DHT22;74589;48.846;2.382;2024-03-22T13:44:22;22.50;1.00
84389;DHT22;74589;48.846;2.382;2024-03-22T13:46:50;22.40;1.00
84389;DHT22;74589;48.846;2.382;2024-03-22T13:49:17;22.40;1.00
84389;DHT22;74589;48.846;2.382;2024-03-22T13:51:43;22.40;1.00
84389;DHT22;74589;48.846;2.382;2024-03-22T13:54:09;22.40;1.00
84389;DHT22;74589;48.846;2.382;2024-03-22T13:56:35;22.40;1.00
84389;DHT22;74589;48.846;2.382;2024-03-22T13:59:01;22.40;1.00
84389;DHT22;74589;48.846;2.382;2024-03-22T14:01:27;22.40;1.00
84389;DHT22;74589;48.846;2.382;2024-03-22T14:03:53;22.50;1.00
84389;DHT22;74589;48.846;2.382;2024-03-22T14:06:18;22.50;1.00
84389;DHT22;74589;48.846;2.382;2024-03-22T14:08:44;22.40;1.00
84389;DHT22;74589;48.846;2.382;2024-03-22T14:11:10;22.50;1.00
84389;DHT22;74589;48.846;2.382;2024-03-22T14:13:35;22.50;1.00
84389;DHT22;74589;48.846;2.382;2024-03-22T14:16:01;22.60;1.00
84389;DHT22;74589;48.846;2.382;2024-03-22T14:18:27;22.50;1.00
84389;DHT22;74589;48.846;2.382;2024-03-22T14:20:53;22.40;1.00
84389;DHT22;74589;48.846;2.382;2024-03-22T14:23:19;22.40;1.00
84389;DHT22;74589;48.846;2.382;2024-03-22T14:25:45;22.50;1.00
84389;DHT22;74589;48.846;2.382;2024-03-22T14:28:13;22.60;1.00
84389;DHT22;74589;48.846;2.382;2024-03-22T14:30:38;22.70;1.00
84389;DHT22;74589;48.846;2.382;2024-03-22T14:33:04;22.60;1.00
84389;DHT22;74589;48.846;2.382;2024-03-22T14:35:30;22.50;1.00
84389;DHT22;74589;48.846;2.382;2024-03-22T14:37:55;22.70;1.00
84389;DHT22;74589;48.846;2.382;2024-03-22T14:40:21;22.70;1.00
84389;DHT22;74589;48.846;2.382;2024-03-22T14:42:47;22.60;1.00
84389;DHT22;74589;48.846;2.382;2024-03-22T14:45:12;22.50;1.00
84389;DHT22;74589;48.846;2.382;2024-03-22T14:47:38;22.50;1.00
84389;DHT22;74589;48.846;2.382;2024-03-22T14:50:05;22.50;1.00
84389;DHT22;74589;48.846;2.382;2024-03-22T14:52:30;22.60;1.00
84389;DHT22;74589;48.846;2.382;2024-03-22T14:54:56;22.60;1.00
84389;DHT22;74589;48.846;2.382;2024-03-22T14:57:22;22.70;1.00
84389;DHT22;74589;48.846;2.382;2024-03-22T14:59:47;22.40;1.00
84389;DHT22;74589;48.846;2.382;2024-03-22T15:02:18;22.30;1.00
84389;DHT22;74589;48.846;2.382;2024-03-22T15:04:43;22.40;1.00
84389;DHT22;74589;48.846;2.382;2024-03-22T15:07:15;22.40;1.00
84389;DHT22;74589;48.846;2.382;2024-03-22T15:09:41;22.40;1.00
84389;DHT22;74589;48.846;2.382;2024-03-22T15:12:07;22.30;1.00
84389;DHT22;74589;48.846;2.382;2024-03-22T15:14:34;22.30;1.00
84389;DHT22;74589;48.846;2.382;2024-03-22T15:17:00;22.40;1.00
84389;DHT22;74589;48.846;2.382;2024-03-22T15:19:25;22.40;1.00
84389;DHT22;74589;48.846;2.382;2024-03-22T15:21:51;22.40;1.00
84389;DHT22;74589;48.846;2.382;2024-03-22T15:24:17;22.50;1.00
84389;DHT22;74589;48.846;2.382;2024-03-22T15:26:43;22.50;1.00
84389;DHT22;74589;48.846;2.382;2024-03-22T15:29:09;22.50;1.00
84389;DHT22;74589;48.846;2.382;2024-03-22T15:31:34;22.40;1.00
84389;DHT22;74589;48.846;2.382;2024-03-22T15:34:00;22.30;1.00
84389;DHT22;74589;48.846;2.382;2024-03-22T15:36:26;22.30;1.00
84389;DHT22;74589;48.846;2.382;2024-03-22T15:38:52;22.30;1.00